Google Maps JavaScript API Example
Pilot Flight Report # 92785 Submitted by : AST775 on 2019-03-19
Date: 2019-03-19Aircraft: Howard 500
Flight No.: Not AvailableDistance (Nm): 399.65
Departure: YCOM - Cooma-Snowy MountainsDestination: YWCA - Wilcannia
 TimeFuelWeightSpeeds  
Out (Taxi)2007Z6108 lbs31087 lbs Flight RulesVFR
Off (Takeoff)2007Z 31075 lbs102 ktsFlight Level12500
On (Landing)2124Z 27671 lbs90 ktsVSTD-20 ft/min
In (Ramp)2124Z2688 lbs27671 lbs ZFW24981 lbs
Flight1.30  -  1:173408 lbs  Pax0
Block1.28  -  1:173420 lbs  Cargo0
Departure Weather182021Z 00000KT 0SM SKC 0/0 A2992
Destination WeatherYHAY 182124Z 13604KT 48SM SKC 31/15 A2997
Flight CommentsLeg 19 - YCOM - YWCA